sensor_id;sensor_type;location;lat;lon;timestamp;temperature;humidity
16388;DHT22;8303;53.446;9.988;2022-09-02T04:46:45;10.20;99.90
16388;DHT22;8303;53.446;9.988;2022-09-02T04:49:13;10.20;99.90
16388;DHT22;8303;53.446;9.988;2022-09-02T04:51:42;10.20;99.90
16388;DHT22;8303;53.446;9.988;2022-09-02T04:54:10;10.40;99.90
16388;DHT22;8303;53.446;9.988;2022-09-02T04:56:37;10.30;99.90
16388;DHT22;8303;53.446;9.988;2022-09-02T04:59:07;10.30;99.90
16388;DHT22;8303;53.446;9.988;2022-09-02T05:01:37;10.60;99.90
16388;DHT22;8303;53.446;9.988;2022-09-02T05:04:06;10.30;99.90
16388;DHT22;8303;53.446;9.988;2022-09-02T05:06:35;10.40;99.90
16388;DHT22;8303;53.446;9.988;2022-09-02T05:09:05;10.40;99.90
16388;DHT22;8303;53.446;9.988;2022-09-02T05:11:33;10.40;99.90
16388;DHT22;8303;53.446;9.988;2022-09-02T05:14:02;10.50;99.90
16388;DHT22;8303;53.446;9.988;2022-09-02T05:16:33;10.60;99.90
16388;DHT22;8303;53.446;9.988;2022-09-02T05:19:02;10.80;99.90
16388;DHT22;8303;53.446;9.988;2022-09-02T05:21:31;10.80;99.90
16388;DHT22;8303;53.446;9.988;2022-09-02T05:23:58;10.90;99.90
16388;DHT22;8303;53.446;9.988;2022-09-02T05:26:28;11.00;99.90
16388;DHT22;8303;53.446;9.988;2022-09-02T05:29:00;11.10;99.90
16388;DHT22;8303;53.446;9.988;2022-09-02T05:31:31;11.20;99.90
16388;DHT22;8303;53.446;9.988;2022-09-02T05:33:58;11.30;99.90
16388;DHT22;8303;53.446;9.988;2022-09-02T05:36:25;11.40;99.90
16388;DHT22;8303;53.446;9.988;2022-09-02T05:38:54;11.40;99.90
16388;DHT22;8303;53.446;9.988;2022-09-02T05:41:22;11.50;99.90
16388;DHT22;8303;53.446;9.988;2022-09-02T05:43:54;11.50;99.90
16388;DHT22;8303;53.446;9.988;2022-09-02T05:46:24;11.60;99.90
16388;DHT22;8303;53.446;9.988;2022-09-02T05:48:52;11.70;99.90
16388;DHT22;8303;53.446;9.988;2022-09-02T05:51:36;11.80;99.90
16388;DHT22;8303;53.446;9.988;2022-09-02T05:54:05;11.80;99.90
16388;DHT22;8303;53.446;9.988;2022-09-02T05:56:32;11.90;99.90
16388;DHT22;8303;53.446;9.988;2022-09-02T05:58:59;11.90;99.90
16388;DHT22;8303;53.446;9.988;2022-09-02T06:01:29;12.00;99.90
16388;DHT22;8303;53.446;9.988;2022-09-02T06:03:56;12.00;99.90
16388;DHT22;8303;53.446;9.988;2022-09-02T06:06:24;12.00;99.90
16388;DHT22;8303;53.446;9.988;2022-09-02T06:08:51;12.10;99.90
16388;DHT22;8303;53.446;9.988;2022-09-02T06:11:19;12.30;99.90
16388;DHT22;8303;53.446;9.988;2022-09-02T06:13:48;12.20;99.90
16388;DHT22;8303;53.446;9.988;2022-09-02T06:16:20;12.30;99.90
16388;DHT22;8303;53.446;9.988;2022-09-02T06:18:49;12.40;99.90
16388;DHT22;8303;53.446;9.988;2022-09-02T06:21:18;12.50;99.90
16388;DHT22;8303;53.446;9.988;2022-09-02T06:23:48;12.70;99.90
16388;DHT22;8303;53.446;9.988;2022-09-02T06:26:17;12.70;99.90
16388;DHT22;8303;53.446;9.988;2022-09-02T06:28:45;12.80;99.90
16388;DHT22;8303;53.446;9.988;2022-09-02T06:31:17;12.90;99.90
16388;DHT22;8303;53.446;9.988;2022-09-02T06:33:46;13.00;99.90
16388;DHT22;8303;53.446;9.988;2022-09-02T06:36:15;12.90;99.90
16388;DHT22;8303;53.446;9.988;2022-09-02T06:38:44;13.30;99.90
16388;DHT22;8303;53.446;9.988;2022-09-02T06:41:14;13.30;96.80
16388;DHT22;8303;53.446;9.988;2022-09-02T06:43:41;13.50;86.20
16388;DHT22;8303;53.446;9.988;2022-09-02T06:46:15;13.60;65.60
16388;DHT22;8303;53.446;9.988;2022-09-02T06:48:42;13.70;53.40
16388;DHT22;8303;53.446;9.988;2022-09-02T06:51:15;13.70;46.60
16388;DHT22;8303;53.446;9.988;2022-09-02T06:53:43;13.80;58.70
16388;DHT22;8303;53.446;9.988;2022-09-02T06:56:11;13.90;29.80
16388;DHT22;8303;53.446;9.988;2022-09-02T06:58:39;14.10;18.10
16388;DHT22;8303;53.446;9.988;2022-09-02T07:01:06;14.10;1.00
16388;DHT22;8303;53.446;9.988;2022-09-02T07:03:36;14.20;1.00
16388;DHT22;8303;53.446;9.988;2022-09-02T07:06:21;14.30;1.00
16388;DHT22;8303;53.446;9.988;2022-09-02T07:08:48;14.40;1.00
16388;DHT22;8303;53.446;9.988;2022-09-02T07:11:21;14.50;1.00
16388;DHT22;8303;53.446;9.988;2022-09-02T07:13:49;14.60;1.00
16388;DHT22;8303;53.446;9.988;2022-09-02T07:16:16;14.70;1.00
16388;DHT22;8303;53.446;9.988;2022-09-02T07:18:45;14.80;1.00
16388;DHT22;8303;53.446;9.988;2022-09-02T07:21:15;14.90;1.00
16388;DHT22;8303;53.446;9.988;2022-09-02T07:23:44;15.10;1.00
16388;DHT22;8303;53.446;9.988;2022-09-02T07:26:12;15.20;1.00
16388;DHT22;8303;53.446;9.988;2022-09-02T07:28:39;15.30;1.00
16388;DHT22;8303;53.446;9.988;2022-09-02T07:31:08;15.40;1.00
16388;DHT22;8303;53.446;9.988;2022-09-02T07:33:35;15.50;1.00
16388;DHT22;8303;53.446;9.988;2022-09-02T07:36:05;15.60;1.00
16388;DHT22;8303;53.446;9.988;2022-09-02T07:38:32;15.80;1.00
16388;DHT22;8303;53.446;9.988;2022-09-02T07:41:00;15.80;1.00
16388;DHT22;8303;53.446;9.988;2022-09-02T07:43:28;15.90;1.00
16388;DHT22;8303;53.446;9.988;2022-09-02T07:45:56;16.00;1.00
16388;DHT22;8303;53.446;9.988;2022-09-02T07:48:26;16.30;1.00
16388;DHT22;8303;53.446;9.988;2022-09-02T07:50:54;16.20;1.00
16388;DHT22;8303;53.446;9.988;2022-09-02T07:53:23;16.30;1.00
16388;DHT22;8303;53.446;9.988;2022-09-02T07:55:50;16.50;1.00
16388;DHT22;8303;53.446;9.988;2022-09-02T07:58:19;16.60;1.00
16388;DHT22;8303;53.446;9.988;2022-09-02T08:00:47;16.80;1.00
16388;DHT22;8303;53.446;9.988;2022-09-02T08:03:15;16.80;1.00
16388;DHT22;8303;53.446;9.988;2022-09-02T08:05:43;16.90;1.00
16388;DHT22;8303;53.446;9.988;2022-09-02T08:08:12;16.90;1.00
16388;DHT22;8303;53.446;9.988;2022-09-02T08:10:42;17.00;1.00
16388;DHT22;8303;53.446;9.988;2022-09-02T08:13:09;17.20;1.00
16388;DHT22;8303;53.446;9.988;2022-09-02T08:15:36;17.30;1.00
16388;DHT22;8303;53.446;9.988;2022-09-02T08:18:04;17.40;1.00
16388;DHT22;8303;53.446;9.988;2022-09-02T08:20:33;17.40;1.00
16388;DHT22;8303;53.446;9.988;2022-09-02T08:23:00;17.30;1.00
16388;DHT22;8303;53.446;9.988;2022-09-02T08:25:28;17.60;1.00
16388;DHT22;8303;53.446;9.988;2022-09-02T08:28:00;17.70;1.00
16388;DHT22;8303;53.446;9.988;2022-09-02T08:30:28;17.80;99.90
16388;DHT22;8303;53.446;9.988;2022-09-02T08:32:55;17.80;99.90
16388;DHT22;8303;53.446;9.988;2022-09-02T08:35:22;17.80;99.90
16388;DHT22;8303;53.446;9.988;2022-09-02T08:37:49;17.90;99.90
16388;DHT22;8303;53.446;9.988;2022-09-02T08:40:18;18.00;99.90
16388;DHT22;8303;53.446;9.988;2022-09-02T08:42:48;18.20;99.90
16388;DHT22;8303;53.446;9.988;2022-09-02T08:45:24;18.30;99.90
16388;DHT22;8303;53.446;9.988;2022-09-02T08:48:01;18.30;99.90
16388;DHT22;8303;53.446;9.988;2022-09-02T08:50:30;18.50;99.90
16388;DHT22;8303;53.446;9.988;2022-09-02T08:53:02;18.60;99.90
16388;DHT22;8303;53.446;9.988;2022-09-02T08:55:35;18.70;99.90
16388;DHT22;8303;53.446;9.988;2022-09-02T08:58:04;18.70;99.90
16388;DHT22;8303;53.446;9.988;2022-09-02T09:00:38;18.80;99.90
16388;DHT22;8303;53.446;9.988;2022-09-02T09:03:15;18.90;99.90
16388;DHT22;8303;53.446;9.988;2022-09-02T09:05:48;19.00;99.90
16388;DHT22;8303;53.446;9.988;2022-09-02T09:08:24;19.00;99.90
16388;DHT22;8303;53.446;9.988;2022-09-02T09:10:59;19.00;99.90
16388;DHT22;8303;53.446;9.988;2022-09-02T09:16:44;19.30;99.90
16388;DHT22;8303;53.446;9.988;2022-09-02T09:19:15;19.30;99.90
16388;DHT22;8303;53.446;9.988;2022-09-02T09:21:43;19.30;99.90
16388;DHT22;8303;53.446;9.988;2022-09-02T09:24:20;19.20;99.90
16388;DHT22;8303;53.446;9.988;2022-09-02T09:26:52;19.30;99.90
16388;DHT22;8303;53.446;9.988;2022-09-02T09:29:19;19.40;99.90
16388;DHT22;8303;53.446;9.988;2022-09-02T09:31:53;19.50;99.90
16388;DHT22;8303;53.446;9.988;2022-09-02T09:34:21;19.50;99.90
16388;DHT22;8303;53.446;9.988;2022-09-02T09:36:51;19.60;99.90
16388;DHT22;8303;53.446;9.988;2022-09-02T09:39:24;19.80;99.90
16388;DHT22;8303;53.446;9.988;2022-09-02T09:41:53;19.90;99.90
16388;DHT22;8303;53.446;9.988;2022-09-02T09:44:39;20.00;99.90
16388;DHT22;8303;53.446;9.988;2022-09-02T09:47:14;20.00;99.90
16388;DHT22;8303;53.446;9.988;2022-09-02T09:49:46;20.00;99.90
16388;DHT22;8303;53.446;9.988;2022-09-02T09:52:24;20.00;99.90
16388;DHT22;8303;53.446;9.988;2022-09-02T09:55:12;20.20;99.90
16388;DHT22;8303;53.446;9.988;2022-09-02T09:57:40;20.40;99.90
16388;DHT22;8303;53.446;9.988;2022-09-02T10:00:20;20.40;99.90
16388;DHT22;8303;53.446;9.988;2022-09-02T10:02:51;20.30;99.90
16388;DHT22;8303;53.446;9.988;2022-09-02T10:05:29;20.40;99.90
16388;DHT22;8303;53.446;9.988;2022-09-02T10:07:58;20.40;99.90
16388;DHT22;8303;53.446;9.988;2022-09-02T10:10:28;20.30;99.90
16388;DHT22;8303;53.446;9.988;2022-09-02T10:12:58;20.30;99.90
16388;DHT22;8303;53.446;9.988;2022-09-02T10:15:33;20.40;99.90
16388;DHT22;8303;53.446;9.988;2022-09-02T10:18:10;20.50;99.90
16388;DHT22;8303;53.446;9.988;2022-09-02T10:20:47;20.80;99.90
16388;DHT22;8303;53.446;9.988;2022-09-02T10:23:39;21.00;99.90
16388;DHT22;8303;53.446;9.988;2022-09-02T10:26:18;21.00;99.90
16388;DHT22;8303;53.446;9.988;2022-09-02T10:29:06;21.20;99.90
16388;DHT22;8303;53.446;9.988;2022-09-02T10:31:45;21.10;99.90
16388;DHT22;8303;53.446;9.988;2022-09-02T10:34:23;21.00;99.90
16388;DHT22;8303;53.446;9.988;2022-09-02T10:37:10;21.00;99.90
16388;DHT22;8303;53.446;9.988;2022-09-02T10:40:01;21.20;99.90
16388;DHT22;8303;53.446;9.988;2022-09-02T10:42:38;21.40;99.90
16388;DHT22;8303;53.446;9.988;2022-09-02T10:45:12;21.50;99.90
16388;DHT22;8303;53.446;9.988;2022-09-02T10:47:48;21.60;99.90
16388;DHT22;8303;53.446;9.988;2022-09-02T10:50:23;21.60;99.90
16388;DHT22;8303;53.446;9.988;2022-09-02T10:53:01;21.70;99.90
16388;DHT22;8303;53.446;9.988;2022-09-02T10:55:36;21.80;99.90
16388;DHT22;8303;53.446;9.988;2022-09-02T10:58:11;21.70;99.90
16388;DHT22;8303;53.446;9.988;2022-09-02T11:00:40;21.70;99.90
16388;DHT22;8303;53.446;9.988;2022-09-02T11:03:12;21.70;99.90
16388;DHT22;8303;53.446;9.988;2022-09-02T11:05:46;21.90;99.90
16388;DHT22;8303;53.446;9.988;2022-09-02T11:08:17;21.90;99.90
16388;DHT22;8303;53.446;9.988;2022-09-02T11:10:55;21.90;99.90
16388;DHT22;8303;53.446;9.988;2022-09-02T11:13:30;22.00;99.90
16388;DHT22;8303;53.446;9.988;2022-09-02T11:16:03;22.00;99.90
16388;DHT22;8303;53.446;9.988;2022-09-02T11:18:36;21.80;99.90
16388;DHT22;8303;53.446;9.988;2022-09-02T11:21:25;21.90;99.90
16388;DHT22;8303;53.446;9.988;2022-09-02T11:23:56;22.00;99.90
16388;DHT22;8303;53.446;9.988;2022-09-02T11:26:28;22.10;99.90
16388;DHT22;8303;53.446;9.988;2022-09-02T11:29:00;22.20;99.90
16388;DHT22;8303;53.446;9.988;2022-09-02T11:31:33;22.20;99.90
16388;DHT22;8303;53.446;9.988;2022-09-02T11:34:09;22.40;99.90
16388;DHT22;8303;53.446;9.988;2022-09-02T11:36:39;22.60;99.90
16388;DHT22;8303;53.446;9.988;2022-09-02T11:39:09;22.80;99.90
16388;DHT22;8303;53.446;9.988;2022-09-02T11:41:51;22.80;99.90
16388;DHT22;8303;53.446;9.988;2022-09-02T11:47:53;23.00;99.90
16388;DHT22;8303;53.446;9.988;2022-09-02T11:50:30;23.10;99.90
16388;DHT22;8303;53.446;9.988;2022-09-02T11:53:11;23.00;99.90
16388;DHT22;8303;53.446;9.988;2022-09-02T11:55:46;22.90;99.90
16388;DHT22;8303;53.446;9.988;2022-09-02T11:58:32;22.90;99.90
16388;DHT22;8303;53.446;9.988;2022-09-02T12:01:04;23.00;99.90
16388;DHT22;8303;53.446;9.988;2022-09-02T12:03:34;23.20;99.90
16388;DHT22;8303;53.446;9.988;2022-09-02T12:06:08;23.40;99.90
16388;DHT22;8303;53.446;9.988;2022-09-02T12:09:01;23.40;99.90
16388;DHT22;8303;53.446;9.988;2022-09-02T12:11:49;23.10;99.90
16388;DHT22;8303;53.446;9.988;2022-09-02T12:17:34;22.60;99.90
16388;DHT22;8303;53.446;9.988;2022-09-02T12:20:03;23.10;99.90
16388;DHT22;8303;53.446;9.988;2022-09-02T12:22:33;23.00;99.90
16388;DHT22;8303;53.446;9.988;2022-09-02T12:25:35;22.80;99.90
16388;DHT22;8303;53.446;9.988;2022-09-02T12:28:24;22.80;99.90
16388;DHT22;8303;53.446;9.988;2022-09-02T12:31:14;22.50;99.90
16388;DHT22;8303;53.446;9.988;2022-09-02T12:33:44;22.70;99.90
16388;DHT22;8303;53.446;9.988;2022-09-02T12:36:45;22.90;99.90
16388;DHT22;8303;53.446;9.988;2022-09-02T12:42:21;23.70;99.90
16388;DHT22;8303;53.446;9.988;2022-09-02T12:44:54;23.70;99.90
16388;DHT22;8303;53.446;9.988;2022-09-02T12:47:37;23.40;99.90
16388;DHT22;8303;53.446;9.988;2022-09-02T12:50:07;23.10;99.90
16388;DHT22;8303;53.446;9.988;2022-09-02T12:52:41;23.40;99.90
16388;DHT22;8303;53.446;9.988;2022-09-02T12:55:18;23.10;99.90
16388;DHT22;8303;53.446;9.988;2022-09-02T12:57:49;22.50;99.90
16388;DHT22;8303;53.446;9.988;2022-09-02T13:00:25;22.60;99.90
16388;DHT22;8303;53.446;9.988;2022-09-02T13:03:07;23.00;99.90
16388;DHT22;8303;53.446;9.988;2022-09-02T13:05:49;23.10;99.90
16388;DHT22;8303;53.446;9.988;2022-09-02T13:11:47;22.60;99.90
16388;DHT22;8303;53.446;9.988;2022-09-02T13:14:57;22.60;99.90
16388;DHT22;8303;53.446;9.988;2022-09-02T13:20:38;22.40;99.90
16388;DHT22;8303;53.446;9.988;2022-09-02T13:23:31;23.00;99.90
16388;DHT22;8303;53.446;9.988;2022-09-02T13:26:24;22.90;99.90
16388;DHT22;8303;53.446;9.988;2022-09-02T13:29:24;22.90;99.90
16388;DHT22;8303;53.446;9.988;2022-09-02T13:31:59;22.60;99.90
16388;DHT22;8303;53.446;9.988;2022-09-02T13:34:30;23.00;99.90
16388;DHT22;8303;53.446;9.988;2022-09-02T13:36:57;23.20;99.90
16388;DHT22;8303;53.446;9.988;2022-09-02T13:39:25;23.70;99.90
16388;DHT22;8303;53.446;9.988;2022-09-02T13:41:53;23.80;99.90
16388;DHT22;8303;53.446;9.988;2022-09-02T13:44:21;24.30;99.90
16388;DHT22;8303;53.446;9.988;2022-09-02T13:46:50;25.10;99.90
16388;DHT22;8303;53.446;9.988;2022-09-02T13:49:25;25.40;99.90
16388;DHT22;8303;53.446;9.988;2022-09-02T13:51:54;24.70;99.90
16388;DHT22;8303;53.446;9.988;2022-09-02T13:54:28;24.80;99.90
16388;DHT22;8303;53.446;9.988;2022-09-02T13:56:57;25.00;99.90
16388;DHT22;8303;53.446;9.988;2022-09-02T13:59:35;25.30;99.90
16388;DHT22;8303;53.446;9.988;2022-09-02T14:02:17;24.90;99.90
16388;DHT22;8303;53.446;9.988;2022-09-02T14:04:49;25.10;99.90
16388;DHT22;8303;53.446;9.988;2022-09-02T14:07:19;24.70;99.90
16388;DHT22;8303;53.446;9.988;2022-09-02T14:09:47;25.20;99.90
16388;DHT22;8303;53.446;9.988;2022-09-02T14:12:15;25.90;99.90
16388;DHT22;8303;53.446;9.988;2022-09-02T14:14:42;26.00;99.90
16388;DHT22;8303;53.446;9.988;2022-09-02T14:17:20;26.50;99.90
16388;DHT22;8303;53.446;9.988;2022-09-02T14:19:49;26.20;99.90
16388;DHT22;8303;53.446;9.988;2022-09-02T14:22:23;26.90;99.90
16388;DHT22;8303;53.446;9.988;2022-09-02T14:24:52;26.70;99.90
16388;DHT22;8303;53.446;9.988;2022-09-02T14:27:20;26.80;99.90
16388;DHT22;8303;53.446;9.988;2022-09-02T14:29:52;26.30;99.90
16388;DHT22;8303;53.446;9.988;2022-09-02T14:32:21;26.00;99.90
16388;DHT22;8303;53.446;9.988;2022-09-02T14:35:09;25.30;99.90
16388;DHT22;8303;53.446;9.988;2022-09-02T14:37:48;25.80;99.90
16388;DHT22;8303;53.446;9.988;2022-09-02T14:40:15;25.80;99.90
16388;DHT22;8303;53.446;9.988;2022-09-02T14:42:47;25.30;99.90
16388;DHT22;8303;53.446;9.988;2022-09-02T14:45:23;24.80;99.90
16388;DHT22;8303;53.446;9.988;2022-09-02T14:47:51;24.40;99.90
16388;DHT22;8303;53.446;9.988;2022-09-02T14:50:22;25.20;99.90
16388;DHT22;8303;53.446;9.988;2022-09-02T14:52:56;26.30;99.90
16388;DHT22;8303;53.446;9.988;2022-09-02T14:55:47;26.90;99.90
16388;DHT22;8303;53.446;9.988;2022-09-02T14:58:15;26.90;99.90
16388;DHT22;8303;53.446;9.988;2022-09-02T15:00:44;27.10;99.90
16388;DHT22;8303;53.446;9.988;2022-09-02T15:03:13;26.00;99.90
16388;DHT22;8303;53.446;9.988;2022-09-02T15:05:43;25.10;99.90
16388;DHT22;8303;53.446;9.988;2022-09-02T15:08:10;24.60;99.90
16388;DHT22;8303;53.446;9.988;2022-09-02T15:10:37;25.40;99.90
16388;DHT22;8303;53.446;9.988;2022-09-02T15:13:06;25.40;99.90
16388;DHT22;8303;53.446;9.988;2022-09-02T15:15:33;25.70;99.90
16388;DHT22;8303;53.446;9.988;2022-09-02T15:18:00;26.70;99.90
16388;DHT22;8303;53.446;9.988;2022-09-02T15:20:27;26.70;99.90
16388;DHT22;8303;53.446;9.988;2022-09-02T15:22:56;25.70;99.90
16388;DHT22;8303;53.446;9.988;2022-09-02T15:25:23;26.90;99.90
16388;DHT22;8303;53.446;9.988;2022-09-02T15:27:49;27.70;99.90
16388;DHT22;8303;53.446;9.988;2022-09-02T15:30:16;26.50;99.90
16388;DHT22;8303;53.446;9.988;2022-09-02T15:32:43;26.10;99.90
16388;DHT22;8303;53.446;9.988;2022-09-02T15:35:11;28.50;99.90
16388;DHT22;8303;53.446;9.988;2022-09-02T15:37:39;29.80;99.90
16388;DHT22;8303;53.446;9.988;2022-09-02T15:40:09;30.80;99.90
16388;DHT22;8303;53.446;9.988;2022-09-02T15:42:37;30.70;99.90
16388;DHT22;8303;53.446;9.988;2022-09-02T15:45:06;31.90;99.90
16388;DHT22;8303;53.446;9.988;2022-09-02T15:47:34;32.80;99.90
16388;DHT22;8303;53.446;9.988;2022-09-02T15:50:02;33.60;99.90
16388;DHT22;8303;53.446;9.988;2022-09-02T15:52:29;34.80;99.90
16388;DHT22;8303;53.446;9.988;2022-09-02T15:54:56;35.00;99.90
16388;DHT22;8303;53.446;9.988;2022-09-02T15:57:25;33.30;99.90
16388;DHT22;8303;53.446;9.988;2022-09-02T15:59:51;34.00;99.90
16388;DHT22;8303;53.446;9.988;2022-09-02T16:02:18;34.40;99.90
16388;DHT22;8303;53.446;9.988;2022-09-02T16:04:45;32.80;99.90
16388;DHT22;8303;53.446;9.988;2022-09-02T16:07:12;32.20;99.90
16388;DHT22;8303;53.446;9.988;2022-09-02T16:09:39;31.90;99.90
16388;DHT22;8303;53.446;9.988;2022-09-02T16:12:06;31.50;99.90
16388;DHT22;8303;53.446;9.988;2022-09-02T16:14:35;30.00;99.90
16388;DHT22;8303;53.446;9.988;2022-09-02T16:17:03;29.10;99.90
16388;DHT22;8303;53.446;9.988;2022-09-02T16:19:30;26.90;99.90
16388;DHT22;8303;53.446;9.988;2022-09-02T16:21:57;25.70;99.90
16388;DHT22;8303;53.446;9.988;2022-09-02T16:24:24;24.80;99.90
16388;DHT22;8303;53.446;9.988;2022-09-02T16:26:51;25.90;99.90
16388;DHT22;8303;53.446;9.988;2022-09-02T16:29:18;28.10;99.90
16388;DHT22;8303;53.446;9.988;2022-09-02T16:31:47;29.70;99.90
16388;DHT22;8303;53.446;9.988;2022-09-02T16:34:16;30.20;99.90
16388;DHT22;8303;53.446;9.988;2022-09-02T16:36:46;27.50;99.90
16388;DHT22;8303;53.446;9.988;2022-09-02T16:39:13;25.70;99.90
16388;DHT22;8303;53.446;9.988;2022-09-02T16:41:42;24.30;99.90
16388;DHT22;8303;53.446;9.988;2022-09-02T16:44:10;23.60;99.90
16388;DHT22;8303;53.446;9.988;2022-09-02T16:46:38;23.30;99.90
16388;DHT22;8303;53.446;9.988;2022-09-02T16:49:08;22.90;99.90
16388;DHT22;8303;53.446;9.988;2022-09-02T16:51:36;23.00;99.90
16388;DHT22;8303;53.446;9.988;2022-09-02T16:54:06;23.40;99.90
16388;DHT22;8303;53.446;9.988;2022-09-02T16:56:34;23.00;99.90
16388;DHT22;8303;53.446;9.988;2022-09-02T16:59:04;23.00;99.90
16388;DHT22;8303;53.446;9.988;2022-09-02T17:01:31;22.70;99.90
16388;DHT22;8303;53.446;9.988;2022-09-02T17:03:59;22.30;99.90
16388;DHT22;8303;53.446;9.988;2022-09-02T17:06:28;22.30;99.90
16388;DHT22;8303;53.446;9.988;2022-09-02T17:08:55;22.30;99.90
16388;DHT22;8303;53.446;9.988;2022-09-02T17:11:23;22.60;99.90
16388;DHT22;8303;53.446;9.988;2022-09-02T17:13:52;22.70;99.90
16388;DHT22;8303;53.446;9.988;2022-09-02T17:16:20;22.20;99.90
16388;DHT22;8303;53.446;9.988;2022-09-02T17:18:48;21.80;99.90
16388;DHT22;8303;53.446;9.988;2022-09-02T17:21:22;21.50;99.90
16388;DHT22;8303;53.446;9.988;2022-09-02T17:23:51;21.10;99.90
16388;DHT22;8303;53.446;9.988;2022-09-02T17:26:20;20.90;99.90
16388;DHT22;8303;53.446;9.988;2022-09-02T17:28:47;20.70;99.90
16388;DHT22;8303;53.446;9.988;2022-09-02T17:31:20;20.50;99.90
16388;DHT22;8303;53.446;9.988;2022-09-02T17:33:48;20.50;99.90
16388;DHT22;8303;53.446;9.988;2022-09-02T17:36:15;20.40;99.90
16388;DHT22;8303;53.446;9.988;2022-09-02T17:38:42;20.30;99.90
16388;DHT22;8303;53.446;9.988;2022-09-02T17:41:11;20.60;99.90
16388;DHT22;8303;53.446;9.988;2022-09-02T17:43:56;20.60;99.90
16388;DHT22;8303;53.446;9.988;2022-09-02T17:46:23;20.60;99.90
16388;DHT22;8303;53.446;9.988;2022-09-02T17:48:49;20.40;99.90
16388;DHT22;8303;53.446;9.988;2022-09-02T17:51:16;20.30;99.90
16388;DHT22;8303;53.446;9.988;2022-09-02T17:53:44;20.20;99.90
16388;DHT22;8303;53.446;9.988;2022-09-02T17:56:33;20.00;99.90
16388;DHT22;8303;53.446;9.988;2022-09-02T17:59:15;20.00;99.90
16388;DHT22;8303;53.446;9.988;2022-09-02T18:01:53;19.90;99.90
16388;DHT22;8303;53.446;9.988;2022-09-02T18:04:37;20.00;99.90
16388;DHT22;8303;53.446;9.988;2022-09-02T18:07:12;19.80;99.90
16388;DHT22;8303;53.446;9.988;2022-09-02T18:09:40;19.60;99.90
16388;DHT22;8303;53.446;9.988;2022-09-02T18:12:08;19.50;99.90
16388;DHT22;8303;53.446;9.988;2022-09-02T18:14:39;19.40;99.90
16388;DHT22;8303;53.446;9.988;2022-09-02T18:17:19;19.30;99.90
16388;DHT22;8303;53.446;9.988;2022-09-02T18:19:56;19.20;99.90
16388;DHT22;8303;53.446;9.988;2022-09-02T18:22:44;19.10;99.90
16388;DHT22;8303;53.446;9.988;2022-09-02T18:25:21;18.90;99.90
16388;DHT22;8303;53.446;9.988;2022-09-02T18:28:03;18.90;99.90
16388;DHT22;8303;53.446;9.988;2022-09-02T18:30:40;18.80;99.90
16388;DHT22;8303;53.446;9.988;2022-09-02T18:33:20;18.60;99.90
16388;DHT22;8303;53.446;9.988;2022-09-02T18:35:59;18.40;99.90
16388;DHT22;8303;53.446;9.988;2022-09-02T18:38:38;18.30;99.90
16388;DHT22;8303;53.446;9.988;2022-09-02T18:41:17;18.20;99.90
16388;DHT22;8303;53.446;9.988;2022-09-02T18:43:58;18.00;99.90
16388;DHT22;8303;53.446;9.988;2022-09-02T18:46:37;18.00;99.90
16388;DHT22;8303;53.446;9.988;2022-09-02T18:49:05;17.90;99.90
16388;DHT22;8303;53.446;9.988;2022-09-02T18:51:37;17.80;99.90
16388;DHT22;8303;53.446;9.988;2022-09-02T18:54:08;17.70;99.90
16388;DHT22;8303;53.446;9.988;2022-09-02T18:56:38;17.60;99.90
16388;DHT22;8303;53.446;9.988;2022-09-02T18:59:12;17.50;99.90
16388;DHT22;8303;53.446;9.988;2022-09-02T19:01:43;17.40;99.90
16388;DHT22;8303;53.446;9.988;2022-09-02T19:04:11;17.40;99.90
16388;DHT22;8303;53.446;9.988;2022-09-02T19:06:39;17.30;99.90
16388;DHT22;8303;53.446;9.988;2022-09-02T19:09:10;17.20;99.90
16388;DHT22;8303;53.446;9.988;2022-09-02T19:11:37;17.20;99.90
16388;DHT22;8303;53.446;9.988;2022-09-02T19:14:16;17.10;99.90
16388;DHT22;8303;53.446;9.988;2022-09-02T19:16:44;17.00;99.90
16388;DHT22;8303;53.446;9.988;2022-09-02T19:19:11;17.00;99.90
16388;DHT22;8303;53.446;9.988;2022-09-02T19:21:41;16.90;99.90
16388;DHT22;8303;53.446;9.988;2022-09-02T19:24:13;16.80;99.90
16388;DHT22;8303;53.446;9.988;2022-09-02T19:26:50;16.80;99.90
16388;DHT22;8303;53.446;9.988;2022-09-02T19:29:20;16.80;99.90
16388;DHT22;8303;53.446;9.988;2022-09-02T19:31:48;16.80;99.90
16388;DHT22;8303;53.446;9.988;2022-09-02T19:34:16;16.80;99.90
16388;DHT22;8303;53.446;9.988;2022-09-02T19:36:47;16.80;99.90
16388;DHT22;8303;53.446;9.988;2022-09-02T19:39:15;16.90;99.90
16388;DHT22;8303;53.446;9.988;2022-09-02T19:41:42;16.80;99.90
16388;DHT22;8303;53.446;9.988;2022-09-02T19:44:10;16.90;99.90
16388;DHT22;8303;53.446;9.988;2022-09-02T19:46:41;16.80;99.90
16388;DHT22;8303;53.446;9.988;2022-09-02T19:49:08;16.80;99.90
16388;DHT22;8303;53.446;9.988;2022-09-02T19:51:34;16.80;99.90
16388;DHT22;8303;53.446;9.988;2022-09-02T19:54:01;16.80;99.90
16388;DHT22;8303;53.446;9.988;2022-09-02T19:56:28;16.80;99.90
16388;DHT22;8303;53.446;9.988;2022-09-02T19:58:55;16.80;99.90
16388;DHT22;8303;53.446;9.988;2022-09-02T20:01:22;16.80;99.90
16388;DHT22;8303;53.446;9.988;2022-09-02T20:03:50;16.70;99.90
16388;DHT22;8303;53.446;9.988;2022-09-02T20:06:17;16.80;99.90
16388;DHT22;8303;53.446;9.988;2022-09-02T20:08:44;16.80;99.90
16388;DHT22;8303;53.446;9.988;2022-09-02T20:11:11;16.80;99.90
16388;DHT22;8303;53.446;9.988;2022-09-02T20:13:38;16.70;99.90
16388;DHT22;8303;53.446;9.988;2022-09-02T20:16:05;16.70;99.90
16388;DHT22;8303;53.446;9.988;2022-09-02T20:18:32;16.70;99.90
16388;DHT22;8303;53.446;9.988;2022-09-02T20:21:01;16.70;99.90
16388;DHT22;8303;53.446;9.988;2022-09-02T20:23:31;16.60;99.90
16388;DHT22;8303;53.446;9.988;2022-09-02T20:26:14;16.60;99.90
16388;DHT22;8303;53.446;9.988;2022-09-02T20:28:53;16.60;99.90
